sensor_id;sensor_type;location;lat;lon;timestamp;P1;durP1;ratioP1;P2;durP2;ratioP2
78668;SDS011;67984;45.118;20.724;2023-11-21T00:05:53;33.38;;;18.30;;
78668;SDS011;67984;45.118;20.724;2023-11-21T00:15:54;27.55;;;15.38;;
78668;SDS011;67984;45.118;20.724;2023-11-21T00:25:55;25.73;;;15.00;;
78668;SDS011;67984;45.118;20.724;2023-11-21T00:35:57;31.73;;;16.02;;
78668;SDS011;67984;45.118;20.724;2023-11-21T00:45:59;32.42;;;18.15;;
78668;SDS011;67984;45.118;20.724;2023-11-21T00:56:00;27.30;;;14.15;;
78668;SDS011;67984;45.118;20.724;2023-11-21T01:06:01;24.35;;;14.13;;
78668;SDS011;67984;45.118;20.724;2023-11-21T01:16:03;22.15;;;11.43;;
78668;SDS011;67984;45.118;20.724;2023-11-21T01:26:04;26.67;;;13.05;;
78668;SDS011;67984;45.118;20.724;2023-11-21T01:36:06;22.45;;;11.70;;
78668;SDS011;67984;45.118;20.724;2023-11-21T01:46:08;28.02;;;12.35;;
78668;SDS011;67984;45.118;20.724;2023-11-21T01:56:10;18.00;;;10.10;;
78668;SDS011;67984;45.118;20.724;2023-11-21T02:06:12;17.02;;;9.77;;
78668;SDS011;67984;45.118;20.724;2023-11-21T02:16:13;18.15;;;8.70;;
78668;SDS011;67984;45.118;20.724;2023-11-21T02:26:14;20.67;;;12.77;;
78668;SDS011;67984;45.118;20.724;2023-11-21T02:36:18;24.77;;;11.88;;
78668;SDS011;67984;45.118;20.724;2023-11-21T02:46:20;15.82;;;10.75;;
78668;SDS011;67984;45.118;20.724;2023-11-21T02:56:21;29.88;;;17.20;;
78668;SDS011;67984;45.118;20.724;2023-11-21T03:06:23;14.60;;;8.10;;
78668;SDS011;67984;45.118;20.724;2023-11-21T03:16:24;18.45;;;11.07;;
78668;SDS011;67984;45.118;20.724;2023-11-21T03:26:26;16.23;;;8.63;;
78668;SDS011;67984;45.118;20.724;2023-11-21T03:36:28;19.90;;;10.45;;
78668;SDS011;67984;45.118;20.724;2023-11-21T03:46:47;16.02;;;8.57;;
78668;SDS011;67984;45.118;20.724;2023-11-21T03:56:49;16.67;;;8.18;;
78668;SDS011;67984;45.118;20.724;2023-11-21T04:06:50;28.08;;;11.77;;
78668;SDS011;67984;45.118;20.724;2023-11-21T04:16:52;47.15;;;23.55;;
78668;SDS011;67984;45.118;20.724;2023-11-21T04:26:54;15.65;;;8.90;;
78668;SDS011;67984;45.118;20.724;2023-11-21T04:36:56;19.45;;;11.05;;
78668;SDS011;67984;45.118;20.724;2023-11-21T04:46:57;49.47;;;24.10;;
78668;SDS011;67984;45.118;20.724;2023-11-21T04:56:58;19.73;;;11.13;;
78668;SDS011;67984;45.118;20.724;2023-11-21T05:07:01;20.38;;;11.63;;
78668;SDS011;67984;45.118;20.724;2023-11-21T05:17:02;16.17;;;8.85;;
78668;SDS011;67984;45.118;20.724;2023-11-21T05:27:05;17.15;;;8.57;;
78668;SDS011;67984;45.118;20.724;2023-11-21T05:37:06;13.50;;;7.10;;
78668;SDS011;67984;45.118;20.724;2023-11-21T05:47:07;19.25;;;7.57;;
78668;SDS011;67984;45.118;20.724;2023-11-21T05:57:09;13.70;;;7.45;;
78668;SDS011;67984;45.118;20.724;2023-11-21T06:07:10;25.98;;;13.90;;
78668;SDS011;67984;45.118;20.724;2023-11-21T06:17:12;18.38;;;8.60;;
78668;SDS011;67984;45.118;20.724;2023-11-21T06:27:14;21.10;;;10.07;;
78668;SDS011;67984;45.118;20.724;2023-11-21T06:37:16;23.42;;;10.88;;
78668;SDS011;67984;45.118;20.724;2023-11-21T06:47:18;24.38;;;9.40;;
78668;SDS011;67984;45.118;20.724;2023-11-21T06:57:22;26.85;;;12.88;;
78668;SDS011;67984;45.118;20.724;2023-11-21T07:07:24;19.55;;;9.13;;
78668;SDS011;67984;45.118;20.724;2023-11-21T07:17:25;34.70;;;12.90;;
78668;SDS011;67984;45.118;20.724;2023-11-21T07:27:26;17.50;;;9.40;;
78668;SDS011;67984;45.118;20.724;2023-11-21T07:37:28;22.77;;;11.75;;
78668;SDS011;67984;45.118;20.724;2023-11-21T07:47:29;16.67;;;9.40;;
78668;SDS011;67984;45.118;20.724;2023-11-21T07:57:31;13.40;;;8.50;;
78668;SDS011;67984;45.118;20.724;2023-11-21T08:07:33;23.73;;;10.30;;
78668;SDS011;67984;45.118;20.724;2023-11-21T08:17:36;15.23;;;6.90;;
78668;SDS011;67984;45.118;20.724;2023-11-21T08:27:38;18.00;;;9.00;;
78668;SDS011;67984;45.118;20.724;2023-11-21T08:37:40;21.73;;;9.75;;
78668;SDS011;67984;45.118;20.724;2023-11-21T08:47:41;26.40;;;12.40;;
78668;SDS011;67984;45.118;20.724;2023-11-21T08:57:44;12.48;;;6.35;;
78668;SDS011;67984;45.118;20.724;2023-11-21T09:07:47;9.85;;;5.55;;
78668;SDS011;67984;45.118;20.724;2023-11-21T09:17:50;11.77;;;7.32;;
78668;SDS011;67984;45.118;20.724;2023-11-21T09:27:52;11.70;;;5.07;;
78668;SDS011;67984;45.118;20.724;2023-11-21T09:37:53;14.25;;;6.70;;
78668;SDS011;67984;45.118;20.724;2023-11-21T09:47:55;10.48;;;4.80;;
78668;SDS011;67984;45.118;20.724;2023-11-21T09:57:57;23.83;;;7.93;;
78668;SDS011;67984;45.118;20.724;2023-11-21T10:07:59;9.95;;;5.13;;
78668;SDS011;67984;45.118;20.724;2023-11-21T10:18:01;10.27;;;5.22;;
78668;SDS011;67984;45.118;20.724;2023-11-21T10:28:04;13.25;;;6.60;;
78668;SDS011;67984;45.118;20.724;2023-11-21T10:38:08;17.13;;;7.03;;
78668;SDS011;67984;45.118;20.724;2023-11-21T10:48:15;12.18;;;6.50;;
78668;SDS011;67984;45.118;20.724;2023-11-21T10:58:17;13.23;;;6.38;;
78668;SDS011;67984;45.118;20.724;2023-11-21T11:08:18;13.80;;;6.72;;
78668;SDS011;67984;45.118;20.724;2023-11-21T11:18:28;11.73;;;6.63;;
78668;SDS011;67984;45.118;20.724;2023-11-21T11:38:44;15.95;;;8.80;;
78668;SDS011;67984;45.118;20.724;2023-11-21T11:48:46;16.98;;;9.25;;
78668;SDS011;67984;45.118;20.724;2023-11-21T11:58:47;12.85;;;7.30;;
78668;SDS011;67984;45.118;20.724;2023-11-21T12:08:49;23.17;;;11.13;;
78668;SDS011;67984;45.118;20.724;2023-11-21T12:18:51;15.48;;;7.80;;
78668;SDS011;67984;45.118;20.724;2023-11-21T12:28:54;14.90;;;6.53;;
78668;SDS011;67984;45.118;20.724;2023-11-21T12:38:57;19.48;;;9.05;;
78668;SDS011;67984;45.118;20.724;2023-11-21T12:48:58;13.25;;;7.70;;
78668;SDS011;67984;45.118;20.724;2023-11-21T12:58:59;49.47;;;21.63;;
78668;SDS011;67984;45.118;20.724;2023-11-21T13:09:00;25.20;;;13.57;;
78668;SDS011;67984;45.118;20.724;2023-11-21T13:19:02;38.63;;;20.33;;
78668;SDS011;67984;45.118;20.724;2023-11-21T13:29:04;46.97;;;24.08;;
78668;SDS011;67984;45.118;20.724;2023-11-21T13:39:06;36.58;;;19.23;;
78668;SDS011;67984;45.118;20.724;2023-11-21T13:49:16;45.03;;;28.05;;
78668;SDS011;67984;45.118;20.724;2023-11-21T13:59:17;74.20;;;38.15;;
78668;SDS011;67984;45.118;20.724;2023-11-21T14:09:24;80.93;;;37.67;;
78668;SDS011;67984;45.118;20.724;2023-11-21T14:19:26;108.07;;;51.17;;
78668;SDS011;67984;45.118;20.724;2023-11-21T14:29:32;79.10;;;36.22;;
78668;SDS011;67984;45.118;20.724;2023-11-21T14:39:40;159.95;;;70.20;;
78668;SDS011;67984;45.118;20.724;2023-11-21T14:49:45;136.45;;;63.97;;
78668;SDS011;67984;45.118;20.724;2023-11-21T15:00:10;196.95;;;90.65;;
78668;SDS011;67984;45.118;20.724;2023-11-21T15:10:34;94.55;;;41.33;;
78668;SDS011;67984;45.118;20.724;2023-11-21T15:20:50;100.45;;;44.70;;
78668;SDS011;67984;45.118;20.724;2023-11-21T15:30:52;79.90;;;36.15;;
78668;SDS011;67984;45.118;20.724;2023-11-21T15:40:53;45.20;;;24.55;;
78668;SDS011;67984;45.118;20.724;2023-11-21T15:50:55;68.90;;;37.47;;
78668;SDS011;67984;45.118;20.724;2023-11-21T16:00:58;80.28;;;38.50;;
78668;SDS011;67984;45.118;20.724;2023-11-21T16:11:00;142.23;;;67.32;;
78668;SDS011;67984;45.118;20.724;2023-11-21T16:21:01;110.72;;;48.42;;
78668;SDS011;67984;45.118;20.724;2023-11-21T16:31:02;87.30;;;37.38;;
78668;SDS011;67984;45.118;20.724;2023-11-21T16:41:04;58.45;;;32.25;;
78668;SDS011;67984;45.118;20.724;2023-11-21T16:51:05;46.15;;;24.00;;
78668;SDS011;67984;45.118;20.724;2023-11-21T17:01:06;43.53;;;19.23;;
78668;SDS011;67984;45.118;20.724;2023-11-21T17:11:09;40.63;;;17.60;;
78668;SDS011;67984;45.118;20.724;2023-11-21T17:21:14;43.22;;;20.27;;
78668;SDS011;67984;45.118;20.724;2023-11-21T17:31:17;60.17;;;26.95;;
78668;SDS011;67984;45.118;20.724;2023-11-21T17:41:21;39.65;;;20.45;;
78668;SDS011;67984;45.118;20.724;2023-11-21T17:51:23;37.33;;;17.17;;
78668;SDS011;67984;45.118;20.724;2023-11-21T18:01:25;60.97;;;24.73;;
78668;SDS011;67984;45.118;20.724;2023-11-21T18:11:34;42.40;;;20.67;;
78668;SDS011;67984;45.118;20.724;2023-11-21T18:21:41;36.72;;;17.58;;
78668;SDS011;67984;45.118;20.724;2023-11-21T18:31:42;27.70;;;15.25;;
78668;SDS011;67984;45.118;20.724;2023-11-21T18:41:44;26.08;;;12.85;;
78668;SDS011;67984;45.118;20.724;2023-11-21T18:51:45;21.88;;;12.40;;
78668;SDS011;67984;45.118;20.724;2023-11-21T19:01:48;30.95;;;17.52;;
78668;SDS011;67984;45.118;20.724;2023-11-21T19:11:50;50.70;;;24.85;;
78668;SDS011;67984;45.118;20.724;2023-11-21T19:21:51;46.95;;;25.25;;
78668;SDS011;67984;45.118;20.724;2023-11-21T19:31:52;54.53;;;28.45;;
78668;SDS011;67984;45.118;20.724;2023-11-21T19:41:55;42.38;;;23.45;;
78668;SDS011;67984;45.118;20.724;2023-11-21T19:51:56;44.75;;;22.58;;
78668;SDS011;67984;45.118;20.724;2023-11-21T20:01:58;38.38;;;20.20;;
78668;SDS011;67984;45.118;20.724;2023-11-21T20:12:00;68.28;;;27.90;;
78668;SDS011;67984;45.118;20.724;2023-11-21T20:22:01;41.03;;;21.88;;
78668;SDS011;67984;45.118;20.724;2023-11-21T20:32:03;49.53;;;26.90;;
78668;SDS011;67984;45.118;20.724;2023-11-21T20:42:06;81.30;;;36.65;;
78668;SDS011;67984;45.118;20.724;2023-11-21T20:52:13;51.70;;;26.60;;
78668;SDS011;67984;45.118;20.724;2023-11-21T21:02:34;54.58;;;26.92;;
78668;SDS011;67984;45.118;20.724;2023-11-21T21:12:37;74.57;;;35.55;;
78668;SDS011;67984;45.118;20.724;2023-11-21T21:22:43;58.03;;;31.13;;
78668;SDS011;67984;45.118;20.724;2023-11-21T21:32:45;69.78;;;30.80;;
78668;SDS011;67984;45.118;20.724;2023-11-21T21:42:46;93.90;;;49.92;;
78668;SDS011;67984;45.118;20.724;2023-11-21T21:52:47;65.70;;;30.23;;
78668;SDS011;67984;45.118;20.724;2023-11-21T22:02:49;22.00;;;12.93;;
78668;SDS011;67984;45.118;20.724;2023-11-21T22:12:50;12.57;;;7.65;;
78668;SDS011;67984;45.118;20.724;2023-11-21T22:22:51;12.68;;;8.25;;
78668;SDS011;67984;45.118;20.724;2023-11-21T22:32:52;12.60;;;8.27;;
78668;SDS011;67984;45.118;20.724;2023-11-21T22:42:58;15.85;;;9.77;;
78668;SDS011;67984;45.118;20.724;2023-11-21T22:52:59;54.03;;;21.67;;
78668;SDS011;67984;45.118;20.724;2023-11-21T23:03:01;32.70;;;16.45;;
78668;SDS011;67984;45.118;20.724;2023-11-21T23:13:02;37.47;;;19.60;;
78668;SDS011;67984;45.118;20.724;2023-11-21T23:23:04;62.88;;;31.00;;
78668;SDS011;67984;45.118;20.724;2023-11-21T23:33:06;31.70;;;16.35;;
78668;SDS011;67984;45.118;20.724;2023-11-21T23:43:08;27.85;;;18.50;;
78668;SDS011;67984;45.118;20.724;2023-11-21T23:53:09;44.75;;;23.75;;
